This is the latest recevied weather packets stored in our database for station/object DG2MCM-11. If no packets are shown the sender has not sent any weather packets the latest 10 day(s).
| Time | Temp. | Humidity | Pressure | Rain* | Wind** | Luminosity | Snow |
|---|---|---|---|---|---|---|---|
| 1777690673 | 5° C | 78% | 1025.9 hPa | 0 mm | - | - | - |
| 1777690071 | 5° C | 78% | 1025.9 hPa | 0 mm | - | - | - |
| 1777689469 | 5° C | 77% | 1026 hPa | 0 mm | - | - | - |
| 1777688317 | 5° C | 78% | 1026.1 hPa | 0 mm | - | - | - |
| 1777687716 | 5° C | 78% | 1026.1 hPa | 0 mm | - | - | - |
| 1777687114 | 5° C | 79% | 1026 hPa | 0 mm | - | - | - |
| 1777686512 | 5° C | 77% | 1026 hPa | 0 mm | - | - | - |
| 1777684708 | 5° C | 77% | 1026.1 hPa | 0 mm | - | - | - |
| 1777684107 | 5.56° C | 77% | 1026.1 hPa | 0 mm | - | - | - |
| 1777682903 | 5.56° C | 78% | 1026.2 hPa | 0 mm | - | - | - |
| 1777682302 | 5.56° C | 78% | 1026.3 hPa | 0 mm | - | - | - |
| 1777681700 | 5.56° C | 76% | 1026.3 hPa | 0 mm | - | - | - |
| 1777678694 | 6.67° C | 73% | 1026.3 hPa | 0 mm | - | - | - |
| 1777678092 | 6.67° C | 73% | 1026.3 hPa | 0 mm | - | - | - |
| 1777677490 | 7.22° C | 72% | 1026.1 hPa | 0 mm | - | - | - |
| 1777675085 | 7.78° C | 70% | 1026.2 hPa | 0 mm | - | - | - |
| 1777668472 | 10.56° C | 58% | 1025.4 hPa | 0 mm | - | - | - |
| 1777667269 | 12.22° C | 53% | 1024.9 hPa | 0 mm | - | - | - |
| 1777664925 | 13.33° C | 47% | 1024.5 hPa | 0 mm | - | - | - |
| 1777664322 | 13.33° C | 46% | 1024.4 hPa | 0 mm | - | - | - |
| 1777660715 | 15.56° C | 40% | 1023.3 hPa | 0 mm | - | - | - |
| 1777660113 | 16.11° C | 39% | 1023.1 hPa | 0 mm | - | - | - |
| 1777657105 | 18.33° C | 33% | 1022.2 hPa | 0 mm | - | - | - |
| 1777652896 | 21.11° C | 27% | 1021.5 hPa | 0 mm | - | - | - |
| 1777650490 | 21.11° C | 27% | 1021.6 hPa | 0 mm | - | - | - |
* Rain latest hour (hover to see other rain measurements)
** Current wind speed in m/s (hover to see current wind gust speed)